createdAt,value
2023-03-21T00:05:15.682Z,1000.89
2023-03-21T00:11:01.075Z,1000.84
2023-03-21T00:16:45.393Z,1000.77
2023-03-21T00:22:29.460Z,1000.62
2023-03-21T00:28:13.239Z,1000.6
2023-03-21T00:33:57.157Z,1000.57
2023-03-21T00:39:41.199Z,1000.49
2023-03-21T00:45:24.968Z,1000.41
2023-03-21T00:51:12.039Z,1000.38
2023-03-21T00:56:55.753Z,1000.34
2023-03-21T01:02:39.640Z,1000.31
2023-03-21T01:08:41.419Z,1000.19
2023-03-21T01:14:31.145Z,1000.13
2023-03-21T01:20:15.418Z,1000.06
2023-03-21T01:25:59.104Z,1000.04
2023-03-21T01:31:43.026Z,1000.03
2023-03-21T01:37:27.007Z,1000.01
2023-03-21T01:43:16.047Z,999.93
2023-03-21T01:49:03.053Z,999.87
2023-03-21T01:54:47.717Z,999.76
2023-03-21T02:00:31.725Z,999.69
2023-03-21T02:06:17.295Z,999.66
2023-03-21T02:12:01.315Z,999.45
2023-03-21T02:17:50.045Z,999.42
2023-03-21T02:23:48.184Z,999.38
2023-03-21T02:29:43.352Z,999.35
2023-03-21T02:35:44.082Z,999.29
2023-03-21T02:41:43.328Z,999.3
2023-03-21T02:47:29.809Z,999.3
2023-03-21T02:53:15.602Z,999.28
2023-03-21T02:58:59.778Z,999.25
2023-03-21T03:04:44.520Z,999.15
2023-03-21T03:10:35.878Z,999.13
2023-03-21T03:16:26.919Z,999.1
2023-03-21T03:22:11.655Z,999.11
2023-03-21T03:27:57.311Z,999.13
2023-03-21T03:33:42.508Z,999.09
2023-03-21T03:39:30.703Z,999.03
2023-03-21T03:45:14.897Z,998.98
2023-03-21T03:51:01.368Z,998.92
2023-03-21T03:56:45.487Z,998.93
2023-03-21T04:02:29.152Z,998.87
2023-03-21T04:08:13.174Z,998.83
2023-03-21T04:13:56.980Z,998.73
2023-03-21T04:19:40.794Z,998.7
2023-03-21T04:25:33.692Z,998.68
2023-03-21T04:31:26.993Z,998.65
2023-03-21T04:37:10.866Z,998.62
2023-03-21T04:42:54.716Z,998.62
2023-03-21T04:48:38.422Z,998.56
2023-03-21T04:54:22.223Z,998.53
2023-03-21T05:00:08.243Z,998.43
2023-03-21T05:05:51.915Z,998.52
2023-03-21T05:11:36.998Z,998.57
2023-03-21T05:17:21.769Z,998.58
2023-03-21T05:23:05.285Z,998.54
2023-03-21T05:28:49.088Z,998.51
2023-03-21T05:34:32.838Z,998.51
2023-03-21T05:40:16.431Z,998.57
2023-03-21T05:46:00.068Z,998.55
2023-03-21T05:51:43.748Z,998.52
2023-03-21T05:57:27.768Z,998.54
2023-03-21T06:03:11.579Z,998.52
2023-03-21T06:08:55.563Z,998.54
2023-03-21T06:14:39.323Z,998.63
2023-03-21T06:20:23.184Z,998.71
2023-03-21T06:26:07.237Z,998.72
2023-03-21T06:31:50.762Z,998.67
2023-03-21T06:37:34.588Z,998.6
2023-03-21T06:43:18.452Z,998.58
2023-03-21T06:49:01.941Z,998.71
2023-03-21T06:54:45.586Z,998.68
2023-03-21T07:00:29.694Z,998.62
2023-03-21T07:06:13.642Z,998.61
2023-03-21T07:11:57.295Z,998.64
2023-03-21T07:17:40.988Z,998.64
2023-03-21T07:23:25.932Z,998.58
2023-03-21T07:29:10.727Z,998.6
2023-03-21T07:34:54.626Z,998.48
2023-03-21T07:40:39.026Z,998.41
2023-03-21T07:46:23.449Z,998.32
2023-03-21T07:52:07.360Z,998.3
2023-03-21T07:57:51.039Z,998.33
2023-03-21T08:03:35.049Z,998.25
2023-03-21T08:09:19.004Z,998.24
2023-03-21T08:15:02.702Z,998.19
2023-03-21T08:20:47.328Z,998.18
2023-03-21T08:26:31.090Z,998.09
2023-03-21T08:32:14.805Z,998.12
2023-03-21T08:37:58.522Z,998.07
2023-03-21T08:43:42.144Z,997.99
2023-03-21T08:49:25.786Z,997.95
2023-03-21T08:55:10.215Z,997.79
2023-03-21T09:00:54.009Z,997.7
2023-03-21T09:06:37.647Z,997.62
2023-03-21T09:12:21.232Z,997.58
2023-03-21T09:18:04.935Z,997.55
2023-03-21T09:23:49.863Z,997.54
2023-03-21T09:29:33.579Z,997.54
2023-03-21T09:35:17.833Z,997.71
2023-03-21T09:41:05.492Z,997.79
2023-03-21T09:46:51.402Z,997.78
2023-03-21T09:52:40.468Z,997.83
2023-03-21T09:58:26.400Z,997.81
2023-03-21T10:04:13.438Z,997.74
2023-03-21T10:09:58.447Z,997.72
2023-03-21T10:15:42.246Z,997.71
2023-03-21T10:21:56.826Z,997.6
2023-03-21T10:27:31.300Z,997.57
2023-03-21T10:33:17.130Z,997.69
2023-03-21T10:39:02.759Z,997.62
2023-03-21T10:44:47.268Z,997.66
2023-03-21T10:50:32.118Z,997.52
2023-03-21T10:56:16.140Z,997.43
2023-03-21T11:01:59.863Z,997.63
2023-03-21T11:07:45.061Z,997.73
2023-03-21T11:13:34.631Z,997.76
2023-03-21T11:19:19.755Z,997.67
2023-03-21T11:25:06.282Z,997.54
2023-03-21T11:30:59.573Z,997.5
2023-03-21T11:36:43.741Z,997.52
2023-03-21T11:42:34.262Z,997.53
2023-03-21T11:48:18.082Z,997.52
2023-03-21T11:54:08.351Z,997.43
2023-03-21T11:59:57.079Z,997.41
2023-03-21T12:05:44.238Z,997.37
2023-03-21T12:11:31.925Z,997.27
2023-03-21T12:17:22.559Z,997.14
2023-03-21T12:23:16.571Z,997.07
2023-03-21T12:29:11.439Z,997.16
2023-03-21T12:35:08.575Z,997.21
2023-03-21T12:41:03.327Z,997.3
2023-03-21T12:46:50.385Z,997.06
2023-03-21T12:52:36.071Z,996.84
2023-03-21T12:58:22.871Z,996.87
2023-03-21T13:04:16.254Z,996.81
2023-03-21T13:10:00.167Z,996.8
2023-03-21T13:15:51.477Z,996.7
2023-03-21T13:21:42.247Z,996.73
2023-03-21T13:27:29.007Z,996.75
2023-03-21T13:33:14.466Z,996.64
2023-03-21T13:39:01.547Z,996.57
2023-03-21T13:44:51.338Z,996.51
2023-03-21T13:50:42.946Z,996.55
2023-03-21T13:56:27.380Z,996.4
2023-03-21T14:02:33.450Z,996.29
2023-03-21T14:08:34.894Z,996.39
2023-03-21T14:14:19.854Z,996.39
2023-03-21T14:20:08.190Z,996.34
2023-03-21T14:25:54.746Z,996.31
2023-03-21T14:31:39.568Z,996.19
2023-03-21T14:37:34.323Z,996.25
2023-03-21T14:43:18.986Z,996.27
2023-03-21T14:49:14.185Z,996.31
2023-03-21T14:55:00.374Z,996.3
2023-03-21T15:00:44.479Z,996.34
2023-03-21T15:06:28.234Z,996.29
2023-03-21T15:12:14.736Z,996.23
2023-03-21T15:18:02.688Z,996.24
2023-03-21T15:23:47.551Z,996.05
2023-03-21T15:29:33.715Z,996.08
2023-03-21T15:35:21.209Z,996.03
2023-03-21T15:41:26.615Z,996.1
2023-03-21T15:47:15.154Z,996.02
2023-03-21T15:52:59.988Z,996.08
2023-03-21T15:58:45.181Z,996.04
2023-03-21T16:04:28.879Z,996.17
2023-03-21T16:10:24.037Z,996.37
2023-03-21T16:16:08.156Z,996.53
2023-03-21T16:21:51.536Z,996.67
2023-03-21T16:27:35.510Z,996.64
2023-03-21T16:33:19.254Z,996.46
2023-03-21T16:39:03.190Z,996.47
2023-03-21T16:44:46.917Z,996.34
2023-03-21T16:50:31.909Z,996.28
2023-03-21T16:56:19.076Z,996.2
2023-03-21T17:02:03.137Z,996.12
2023-03-21T17:07:46.911Z,996.16
2023-03-21T17:13:30.565Z,996.2
2023-03-21T17:19:16.382Z,996.23
2023-03-21T17:25:00.142Z,996.23
2023-03-21T17:30:44.657Z,996.15
2023-03-21T17:36:31.088Z,996.18
2023-03-21T17:42:15.815Z,996.1
2023-03-21T17:48:00.512Z,996.11
2023-03-21T17:53:44.990Z,996.11
2023-03-21T17:59:28.645Z,996.05
2023-03-21T18:05:12.602Z,995.98
2023-03-21T18:10:56.422Z,996.06
2023-03-21T18:16:40.372Z,996.08
2023-03-21T18:22:24.619Z,996.15
2023-03-21T18:28:13.183Z,996.2
2023-03-21T18:34:01.542Z,996.22
2023-03-21T18:39:45.500Z,996.23
2023-03-21T18:45:29.115Z,996.21
2023-03-21T18:51:12.691Z,996.22
2023-03-21T19:03:17.409Z,996.19
2023-03-21T19:09:07.809Z,996.16
2023-03-21T19:14:52.984Z,996.13
2023-03-21T19:20:36.755Z,996.11
2023-03-21T19:26:21.442Z,996.03
2023-03-21T19:32:05.669Z,996.11
2023-03-21T19:37:49.925Z,996.04
2023-03-21T19:43:34.741Z,996.05
2023-03-21T19:49:19.374Z,996.03
2023-03-21T19:55:10.103Z,995.97
2023-03-21T20:00:53.779Z,995.99
2023-03-21T20:06:38.232Z,995.95
2023-03-21T20:12:21.949Z,995.89
2023-03-21T20:18:05.630Z,995.97
2023-03-21T20:23:49.316Z,996.01
2023-03-21T20:30:07.823Z,996.04
2023-03-21T20:41:41.272Z,995.99
2023-03-21T20:47:24.966Z,996.03
2023-03-21T20:53:08.873Z,996.11
2023-03-21T20:59:12.073Z,996.05
2023-03-21T21:05:24.514Z,995.98
2023-03-21T21:17:31.036Z,995.88
2023-03-21T21:23:10.656Z,995.79
2023-03-21T21:28:56.314Z,995.78
2023-03-21T21:34:40.094Z,995.81
2023-03-21T21:40:24.166Z,995.74
2023-03-21T21:46:08.034Z,995.74
2023-03-21T21:51:51.832Z,995.71
2023-03-21T21:57:35.937Z,995.66
2023-03-21T22:03:19.680Z,995.63
2023-03-21T22:09:04.577Z,995.63
2023-03-21T22:14:48.652Z,995.54
2023-03-21T22:20:32.378Z,995.46
2023-03-21T22:26:16.448Z,995.4
2023-03-21T22:32:00.561Z,995.32
2023-03-21T22:37:44.652Z,995.29
2023-03-21T22:43:28.838Z,995.29
2023-03-21T22:49:12.480Z,995.22
2023-03-21T22:54:56.202Z,995.19
2023-03-21T23:00:41.551Z,995.08
2023-03-21T23:06:25.586Z,995.03
2023-03-21T23:12:09.456Z,994.95
2023-03-21T23:17:53.961Z,994.95
2023-03-21T23:23:37.840Z,994.89
2023-03-21T23:29:21.518Z,994.89
2023-03-21T23:35:05.620Z,994.87
2023-03-21T23:40:49.471Z,994.77
2023-03-21T23:46:33.254Z,994.76
2023-03-21T23:52:17.129Z,994.67
2023-03-21T23:58:00.818Z,994.66
